Time;durP1;ratioP1;P1;durP2;ratioP2;P2;SDS_P1;SDS_P2;PMS_P1;PMS_P2;Temp;Humidity;BMP_temperature;BMP_pressure;BME280_temperature;BME280_humidity;BME280_pressure;Samples;Min_cycle;Max_cycle;Signal;HPM_P1;HPM_P2
2022/11/23 00:00:36;;;;;;;7.82;3.30;;;;;;;;;;5024750;28;20014;-83
2022/11/23 00:03:02;;;;;;;4.68;2.00;;;;;;;;;;5021132;28;20037;-87
2022/11/23 00:05:28;;;;;;;3.03;1.40;;;;;;;;;;5015103;28;20032;-88
2022/11/23 00:07:53;;;;;;;3.97;1.30;;;;;;;;;;5019551;28;20029;-88
2022/11/23 00:10:19;;;;;;;5.13;1.52;;;;;;;;;;5025177;28;20022;-86
2022/11/23 00:12:45;;;;;;;1.63;1.15;;;;;;;;;;5025572;28;20025;-84
2022/11/23 00:15:12;;;;;;;2.47;1.17;;;;;;;;;;5034083;28;20049;-87
2022/11/23 00:17:37;;;;;;;1.63;1.08;;;;;;;;;;5029594;28;20087;-87
2022/11/23 00:20:04;;;;;;;4.15;1.10;;;;;;;;;;5019656;28;20108;-84
2022/11/23 00:22:29;;;;;;;2.75;1.20;;;;;;;;;;5021417;28;20146;-86
2022/11/23 00:24:55;;;;;;;1.58;1.15;;;;;;;;;;5017784;28;20108;-89
2022/11/23 00:27:20;;;;;;;2.78;0.98;;;;;;;;;;5017935;28;20022;-88
2022/11/23 00:29:45;;;;;;;1.67;1.33;;;;;;;;;;5017733;28;20123;-88
2022/11/23 00:32:11;;;;;;;4.53;1.67;;;;;;;;;;5034965;28;20109;-87
2022/11/23 00:34:36;;;;;;;4.65;1.40;;;;;;;;;;5035545;28;20077;-82
2022/11/23 00:37:01;;;;;;;2.42;1.30;;;;;;;;;;5038958;28;20064;-85
2022/11/23 00:39:27;;;;;;;3.38;1.20;;;;;;;;;;5026681;28;20094;-85
2022/11/23 00:41:52;;;;;;;2.10;1.10;;;;;;;;;;5005589;28;20057;-88
2022/11/23 00:44:17;;;;;;;4.70;2.03;;;;;;;;;;5013693;28;20033;-86
2022/11/23 00:46:43;;;;;;;10.18;2.97;;;;;;;;;;5029987;28;20018;-89
2022/11/23 00:49:08;;;;;;;15.18;4.50;;;;;;;;;;5022011;28;20033;-86
2022/11/23 00:51:35;;;;;;;25.13;6.00;;;;;;;;;;5018711;28;20028;-90
2022/11/23 00:54:04;;;;;;;17.50;6.75;;;;;;;;;;5014631;28;20055;-88
2022/11/23 00:56:30;;;;;;;14.43;6.43;;;;;;;;;;5017171;28;20651;-88
2022/11/23 00:58:57;;;;;;;19.67;7.32;;;;;;;;;;5019781;28;20029;-87
2022/11/23 01:01:25;;;;;;;6.40;3.15;;;;;;;;;;5020955;28;20037;-89
2022/11/23 01:03:53;;;;;;;11.60;4.05;;;;;;;;;;5012296;28;20026;-89
2022/11/23 01:06:28;;;;;;;4.88;2.03;;;;;;;;;;5017608;28;20049;-89
2022/11/23 01:09:02;;;;;;;3.58;1.48;;;;;;;;;;5014435;28;20045;-86
2022/11/23 01:11:29;;;;;;;2.25;1.10;;;;;;;;;;5017437;28;20027;-89
2022/11/23 01:13:55;;;;;;;3.42;1.20;;;;;;;;;;5026262;28;20920;-89
2022/11/23 01:16:24;;;;;;;4.43;1.00;;;;;;;;;;5025158;28;20468;-90
2022/11/23 01:18:57;;;;;;;4.35;1.27;;;;;;;;;;5023638;28;20029;-88
2022/11/23 01:21:23;;;;;;;3.55;1.38;;;;;;;;;;5022455;28;20096;-88
2022/11/23 01:23:49;;;;;;;1.38;1.13;;;;;;;;;;5039781;28;20037;-88
2022/11/23 01:26:14;;;;;;;3.35;1.20;;;;;;;;;;5019461;28;20049;-88
2022/11/23 01:28:40;;;;;;;2.10;1.13;;;;;;;;;;5022321;28;20025;-90
2022/11/23 01:31:08;;;;;;;2.42;1.17;;;;;;;;;;5022508;28;20504;-90
2022/11/23 01:33:33;;;;;;;2.17;1.67;;;;;;;;;;5029595;28;20488;-90
2022/11/23 01:35:59;;;;;;;7.10;1.38;;;;;;;;;;5037683;28;20045;-91
2022/11/23 01:38:24;;;;;;;3.70;0.98;;;;;;;;;;5028050;28;20022;-91
2022/11/23 01:40:50;;;;;;;2.85;1.17;;;;;;;;;;5020340;28;20555;-88
2022/11/23 01:43:17;;;;;;;2.72;1.10;;;;;;;;;;5021902;28;20109;-89
2022/11/23 01:45:55;;;;;;;1.65;1.05;;;;;;;;;;5025843;28;20023;-90
2022/11/23 01:48:25;;;;;;;1.77;1.27;;;;;;;;;;5018807;28;20175;-90
2022/11/23 01:50:52;;;;;;;2.65;0.80;;;;;;;;;;5020505;28;20616;-90
2022/11/23 01:53:19;;;;;;;6.72;1.00;;;;;;;;;;5024270;28;21376;-90
2022/11/23 01:55:47;;;;;;;1.90;0.98;;;;;;;;;;5021320;28;20022;-90
2022/11/23 01:58:17;;;;;;;2.90;1.02;;;;;;;;;;5021192;28;20152;-91
2022/11/23 02:00:43;;;;;;;2.60;1.10;;;;;;;;;;5019702;28;20040;-89
2022/11/23 02:03:09;;;;;;;0.90;0.85;;;;;;;;;;5015049;28;20036;-89
2022/11/23 02:05:41;;;;;;;8.43;1.45;;;;;;;;;;5029891;28;20099;-91
2022/11/23 02:08:07;;;;;;;8.57;1.35;;;;;;;;;;5016272;28;20022;-90
2022/11/23 02:10:33;;;;;;;1.65;1.25;;;;;;;;;;5016323;28;20060;-90
2022/11/23 02:13:01;;;;;;;1.48;1.00;;;;;;;;;;5019652;28;20471;-91
2022/11/23 02:15:27;;;;;;;8.32;1.02;;;;;;;;;;5021447;28;20037;-91
2022/11/23 02:17:52;;;;;;;2.47;0.95;;;;;;;;;;5016390;28;20086;-90
2022/11/23 02:20:18;;;;;;;2.05;1.50;;;;;;;;;;5017991;28;20121;-90
2022/11/23 02:23:14;;;;;;;4.22;1.15;;;;;;;;;;5019383;28;20510;-90
2022/11/23 02:25:45;;;;;;;2.03;1.05;;;;;;;;;;5017660;28;20021;-90
2022/11/23 02:28:15;;;;;;;3.22;1.88;;;;;;;;;;5017277;28;20026;-90
2022/11/23 02:30:42;;;;;;;1.25;0.75;;;;;;;;;;5021116;28;20052;-90
2022/11/23 02:33:08;;;;;;;2.72;1.20;;;;;;;;;;5029654;28;20479;-91
2022/11/23 02:35:34;;;;;;;0.90;0.90;;;;;;;;;;5034155;28;20116;-89
2022/11/23 02:38:04;;;;;;;3.28;1.10;;;;;;;;;;5034670;28;20047;-91
2022/11/23 02:40:35;;;;;;;2.80;1.35;;;;;;;;;;5048219;28;20013;-89
2022/11/23 02:43:01;;;;;;;1.87;0.97;;;;;;;;;;5036582;28;20025;-90
2022/11/23 02:45:48;;;;;;;1.35;1.02;;;;;;;;;;5031580;28;20347;-90
2022/11/23 02:48:14;;;;;;;3.83;1.35;;;;;;;;;;5043616;28;20040;-89
2022/11/23 02:50:39;;;;;;;8.20;1.55;;;;;;;;;;5026750;28;20100;-90
2022/11/23 02:53:04;;;;;;;2.55;1.33;;;;;;;;;;5031015;28;20052;-89
2022/11/23 02:55:29;;;;;;;4.00;1.17;;;;;;;;;;5026489;28;20105;-89
2022/11/23 02:57:55;;;;;;;4.22;1.38;;;;;;;;;;5033180;28;20018;-89
2022/11/23 03:00:20;;;;;;;2.08;1.10;;;;;;;;;;5032090;28;20021;-89
2022/11/23 03:02:46;;;;;;;4.32;0.90;;;;;;;;;;5031206;28;20034;-89
2022/11/23 03:05:11;;;;;;;2.42;0.90;;;;;;;;;;5043759;28;20026;-90
2022/11/23 03:07:36;;;;;;;1.45;1.13;;;;;;;;;;5047815;28;20017;-91
2022/11/23 03:10:03;;;;;;;5.10;1.48;;;;;;;;;;5050550;28;20006;-90
2022/11/23 03:12:29;;;;;;;2.65;1.10;;;;;;;;;;5048836;28;20033;-92
2022/11/23 03:14:54;;;;;;;2.75;1.63;;;;;;;;;;5047908;28;20055;-91
2022/11/23 03:17:19;;;;;;;3.78;1.30;;;;;;;;;;5054095;28;20014;-91
2022/11/23 03:19:45;;;;;;;0.80;0.80;;;;;;;;;;5043142;28;20052;-90
2022/11/23 03:22:10;;;;;;;0.60;0.60;;;;;;;;;;5033126;28;20503;-90
2022/11/23 03:24:35;;;;;;;2.20;1.30;;;;;;;;;;5033297;28;20383;-90
2022/11/23 03:27:01;;;;;;;3.50;1.13;;;;;;;;;;5031106;28;20025;-90
2022/11/23 03:29:26;;;;;;;1.13;0.75;;;;;;;;;;5033767;28;20087;-90
2022/11/23 03:31:52;;;;;;;1.17;0.93;;;;;;;;;;5034993;28;20029;-90
2022/11/23 03:34:18;;;;;;;4.65;1.08;;;;;;;;;;5038987;28;20017;-91
2022/11/23 03:36:43;;;;;;;2.78;1.10;;;;;;;;;;5039135;28;20064;-90
2022/11/23 03:39:08;;;;;;;6.45;1.00;;;;;;;;;;5041285;28;20029;-90
2022/11/23 03:41:41;;;;;;;2.50;1.10;;;;;;;;;;5038699;28;20029;-89
2022/11/23 03:44:07;;;;;;;4.53;1.20;;;;;;;;;;5051107;28;20009;-89
2022/11/23 03:46:32;;;;;;;5.72;1.50;;;;;;;;;;5041320;28;20367;-89
2022/11/23 03:48:57;;;;;;;7.13;2.38;;;;;;;;;;5034023;28;20020;-90
2022/11/23 03:51:23;;;;;;;4.28;1.85;;;;;;;;;;5047720;28;20056;-90
2022/11/23 03:53:48;;;;;;;17.30;1.98;;;;;;;;;;5057109;28;20041;-90
2022/11/23 03:56:14;;;;;;;5.47;1.85;;;;;;;;;;5046659;28;20071;-90
2022/11/23 03:58:39;;;;;;;2.25;1.42;;;;;;;;;;5033923;28;20410;-90
2022/11/23 04:01:05;;;;;;;2.03;1.20;;;;;;;;;;5032759;28;20045;-91
2022/11/23 04:03:30;;;;;;;1.35;1.23;;;;;;;;;;5033643;28;20032;-91
2022/11/23 04:05:56;;;;;;;5.18;1.40;;;;;;;;;;5031291;28;20112;-91
2022/11/23 04:08:21;;;;;;;5.22;1.70;;;;;;;;;;5031912;28;20033;-90
2022/11/23 04:10:46;;;;;;;4.35;1.65;;;;;;;;;;5032323;28;20029;-90
2022/11/23 04:13:12;;;;;;;1.90;1.58;;;;;;;;;;5027504;28;20067;-91
2022/11/23 04:15:37;;;;;;;9.00;1.75;;;;;;;;;;5018499;28;20025;-91
2022/11/23 04:18:03;;;;;;;2.38;1.52;;;;;;;;;;5016760;28;20470;-91
2022/11/23 04:20:28;;;;;;;4.75;1.60;;;;;;;;;;5023521;28;20032;-90
2022/11/23 04:22:54;;;;;;;4.10;1.75;;;;;;;;;;5027009;28;20026;-90
2022/11/23 04:25:19;;;;;;;1.95;1.70;;;;;;;;;;5027826;28;20029;-90
2022/11/23 04:27:45;;;;;;;2.88;1.48;;;;;;;;;;5020298;28;20553;-90
2022/11/23 04:30:11;;;;;;;6.15;1.80;;;;;;;;;;5034209;28;20044;-91
2022/11/23 04:32:36;;;;;;;3.58;1.77;;;;;;;;;;5032398;28;20021;-90
2022/11/23 04:35:01;;;;;;;5.82;1.90;;;;;;;;;;5023886;28;20029;-90
2022/11/23 04:37:27;;;;;;;5.07;1.60;;;;;;;;;;5026504;28;20055;-90
2022/11/23 04:39:52;;;;;;;5.22;1.70;;;;;;;;;;5026246;28;20028;-91
2022/11/23 04:42:17;;;;;;;8.65;1.95;;;;;;;;;;5022586;28;20022;-89
2022/11/23 04:44:43;;;;;;;3.83;1.92;;;;;;;;;;5035881;28;20120;-90
2022/11/23 04:47:09;;;;;;;3.33;1.95;;;;;;;;;;5039024;28;20056;-90
2022/11/23 04:49:35;;;;;;;1.52;1.42;;;;;;;;;;5037242;28;20017;-89
2022/11/23 04:52:00;;;;;;;3.78;2.08;;;;;;;;;;5037680;28;20013;-90
2022/11/23 04:54:25;;;;;;;3.28;1.80;;;;;;;;;;5039380;28;20025;-90
2022/11/23 04:56:53;;;;;;;7.07;2.20;;;;;;;;;;5039280;28;20113;-90
2022/11/23 04:59:18;;;;;;;5.15;2.17;;;;;;;;;;5025817;28;20116;-89
2022/11/23 05:01:43;;;;;;;6.00;2.15;;;;;;;;;;5026397;28;20109;-89
2022/11/23 05:04:09;;;;;;;4.30;1.90;;;;;;;;;;5010889;28;20045;-90
2022/11/23 05:06:34;;;;;;;9.77;2.45;;;;;;;;;;5032155;28;20052;-91
2022/11/23 05:08:59;;;;;;;1.80;1.60;;;;;;;;;;5042723;28;20474;-90
2022/11/23 05:11:25;;;;;;;2.33;1.70;;;;;;;;;;5029806;28;20488;-89
2022/11/23 05:13:51;;;;;;;3.88;1.67;;;;;;;;;;5027899;28;20029;-89
2022/11/23 05:16:16;;;;;;;5.45;2.03;;;;;;;;;;5029963;28;20491;-89
2022/11/23 05:18:42;;;;;;;4.60;2.10;;;;;;;;;;5028910;28;20403;-90
2022/11/23 05:21:07;;;;;;;7.60;1.90;;;;;;;;;;5029454;28;20025;-91
2022/11/23 05:23:32;;;;;;;2.65;1.80;;;;;;;;;;5028558;28;20419;-90
2022/11/23 05:25:58;;;;;;;2.95;2.20;;;;;;;;;;5026504;28;20022;-89
2022/11/23 05:28:23;;;;;;;2.75;1.67;;;;;;;;;;5029335;28;20025;-89
2022/11/23 05:30:48;;;;;;;5.55;1.80;;;;;;;;;;5034090;28;20047;-89
2022/11/23 05:33:14;;;;;;;3.65;2.22;;;;;;;;;;5034853;28;20033;-89
2022/11/23 05:35:39;;;;;;;3.33;1.73;;;;;;;;;;5033616;28;20057;-89
2022/11/23 05:38:05;;;;;;;5.13;2.10;;;;;;;;;;5037429;28;20021;-88
2022/11/23 05:40:31;;;;;;;5.93;2.17;;;;;;;;;;5033160;28;20125;-89
2022/11/23 05:42:57;;;;;;;3.55;1.60;;;;;;;;;;5032007;28;20041;-89
2022/11/23 05:45:23;;;;;;;1.55;1.35;;;;;;;;;;5029324;28;20029;-89
2022/11/23 05:47:54;;;;;;;8.40;1.95;;;;;;;;;;5023683;28;20032;-89
2022/11/23 05:50:21;;;;;;;4.13;1.77;;;;;;;;;;5025987;28;20055;-91
2022/11/23 05:52:46;;;;;;;2.30;1.63;;;;;;;;;;5045796;28;20042;-92
2022/11/23 05:55:13;;;;;;;10.50;2.03;;;;;;;;;;5026404;28;20029;-91
2022/11/23 05:57:38;;;;;;;13.73;2.50;;;;;;;;;;5027167;28;20026;-91
2022/11/23 06:00:09;;;;;;;7.40;2.20;;;;;;;;;;5027224;28;20029;-90
2022/11/23 06:02:38;;;;;;;4.40;1.58;;;;;;;;;;5028869;28;20052;-90
2022/11/23 06:05:15;;;;;;;2.25;1.83;;;;;;;;;;5021031;28;20120;-86
2022/11/23 06:07:45;;;;;;;6.53;2.90;;;;;;;;;;5023139;28;20659;-89
2022/11/23 06:10:21;;;;;;;4.93;2.45;;;;;;;;;;5022078;28;20124;-89
2022/11/23 06:12:50;;;;;;;3.15;1.55;;;;;;;;;;5025176;28;20394;-89
2022/11/23 06:15:18;;;;;;;1.88;1.42;;;;;;;;;;5024142;28;20072;-89
2022/11/23 06:17:47;;;;;;;3.67;1.42;;;;;;;;;;5022680;28;20017;-89
2022/11/23 06:20:19;;;;;;;3.53;2.10;;;;;;;;;;5022517;28;20037;-90
2022/11/23 06:23:03;;;;;;;1.48;1.35;;;;;;;;;;5031190;28;20451;-89
2022/11/23 06:25:56;;;;;;;2.63;1.65;;;;;;;;;;5029502;28;20022;-90
2022/11/23 06:28:21;;;;;;;;;;;;;;;;;;5030357;28;20037;-90
2022/11/23 06:30:47;;;;;;;5.13;1.80;;;;;;;;;;5039041;28;20003;-89
2022/11/23 06:33:16;;;;;;;2.55;1.55;;;;;;;;;;5037905;28;20029;-90
2022/11/23 06:35:41;;;;;;;2.00;1.60;;;;;;;;;;5035703;28;20099;-89
2022/11/23 06:38:09;;;;;;;2.78;1.85;;;;;;;;;;5037636;28;20045;-88
2022/11/23 06:40:41;;;;;;;7.63;2.00;;;;;;;;;;5038322;28;20052;-88
2022/11/23 06:43:07;;;;;;;3.83;1.67;;;;;;;;;;5032233;28;20022;-88
2022/11/23 06:45:33;;;;;;;5.13;2.13;;;;;;;;;;5023442;28;20036;-86
2022/11/23 06:48:01;;;;;;;1.98;1.50;;;;;;;;;;5042731;28;20033;-86
2022/11/23 06:50:27;;;;;;;2.15;1.42;;;;;;;;;;5023550;28;20503;-87
2022/11/23 06:52:57;;;;;;;2.13;1.30;;;;;;;;;;5042962;28;20064;-86
2022/11/23 06:55:25;;;;;;;4.38;1.80;;;;;;;;;;5054148;28;20682;-87
2022/11/23 06:57:51;;;;;;;4.10;1.80;;;;;;;;;;5042444;28;20093;-88
2022/11/23 07:00:20;;;;;;;2.35;1.27;;;;;;;;;;5059577;28;20123;-87
2022/11/23 07:03:49;;;;;;;3.60;1.63;;;;;;;;;;5059517;28;20032;-87
2022/11/23 07:06:27;;;;;;;6.53;1.58;;;;;;;;;;5014729;28;20036;-87
2022/11/23 07:08:54;;;;;;;2.92;1.98;;;;;;;;;;5059589;28;20025;-86
2022/11/23 07:11:20;;;;;;;4.40;1.98;;;;;;;;;;5046547;28;20075;-88
2022/11/23 07:13:49;;;;;;;13.75;2.42;;;;;;;;;;5063526;28;20021;-87
2022/11/23 07:16:17;;;;;;;7.15;1.70;;;;;;;;;;5048901;28;20033;-87
2022/11/23 07:18:43;;;;;;;5.78;1.95;;;;;;;;;;5041251;28;20031;-87
2022/11/23 07:21:11;;;;;;;1.90;1.55;;;;;;;;;;5058679;28;20028;-87
2022/11/23 07:23:39;;;;;;;4.13;1.70;;;;;;;;;;5040529;28;20090;-88
2022/11/23 07:26:13;;;;;;;6.78;1.88;;;;;;;;;;5048998;28;20028;-87
2022/11/23 07:28:38;;;;;;;6.03;1.65;;;;;;;;;;5059452;28;20021;-87
2022/11/23 07:31:07;;;;;;;2.78;1.80;;;;;;;;;;5073147;28;20032;-88
2022/11/23 07:33:35;;;;;;;5.40;2.83;;;;;;;;;;5072526;28;20029;-88
2022/11/23 07:36:05;;;;;;;5.70;2.22;;;;;;;;;;5042311;28;20024;-88
2022/11/23 07:38:33;;;;;;;5.32;2.67;;;;;;;;;;5074916;28;20021;-88
2022/11/23 07:41:02;;;;;;;9.82;3.13;;;;;;;;;;5067657;28;20532;-88
2022/11/23 07:43:28;;;;;;;6.03;2.75;;;;;;;;;;5057880;28;20028;-87
2022/11/23 07:45:56;;;;;;;5.72;2.70;;;;;;;;;;5053623;28;20381;-87
2022/11/23 07:48:22;;;;;;;4.60;2.25;;;;;;;;;;5070734;28;20021;-87
2022/11/23 07:50:51;;;;;;;4.70;2.40;;;;;;;;;;5070602;28;20120;-88
2022/11/23 07:53:16;;;;;;;4.03;1.70;;;;;;;;;;5071032;28;20517;-88
2022/11/23 07:55:41;;;;;;;4.82;2.30;;;;;;;;;;5071309;28;20016;-88
2022/11/23 07:58:08;;;;;;;11.63;2.17;;;;;;;;;;5072206;28;20108;-90
2022/11/23 08:00:34;;;;;;;8.93;2.88;;;;;;;;;;5073163;28;20028;-90
2022/11/23 08:02:59;;;;;;;5.93;2.65;;;;;;;;;;5061900;28;20028;-89
2022/11/23 08:05:25;;;;;;;4.03;2.50;;;;;;;;;;5049847;28;20016;-89
2022/11/23 08:07:51;;;;;;;5.80;1.90;;;;;;;;;;5054920;28;20025;-88
2022/11/23 08:10:16;;;;;;;4.75;2.05;;;;;;;;;;5072603;28;20028;-89
2022/11/23 08:12:41;;;;;;;4.43;1.67;;;;;;;;;;5072972;28;20036;-89
2022/11/23 08:15:07;;;;;;;3.42;2.00;;;;;;;;;;5072489;28;20078;-88
2022/11/23 08:17:33;;;;;;;5.03;2.05;;;;;;;;;;5054809;28;20058;-88
2022/11/23 08:19:58;;;;;;;3.22;2.28;;;;;;;;;;5072824;28;20081;-88
2022/11/23 08:22:25;;;;;;;8.30;2.28;;;;;;;;;;5052310;28;20698;-88
2022/11/23 08:24:50;;;;;;;4.57;2.05;;;;;;;;;;5053036;28;20035;-89
2022/11/23 08:27:16;;;;;;;7.72;2.30;;;;;;;;;;5072430;28;20032;-88
2022/11/23 08:29:41;;;;;;;6.88;1.85;;;;;;;;;;5054465;28;20024;-88
2022/11/23 08:32:07;;;;;;;5.35;2.10;;;;;;;;;;5072743;28;20025;-88
2022/11/23 08:34:32;;;;;;;3.72;2.30;;;;;;;;;;5076065;28;20431;-89
2022/11/23 08:36:57;;;;;;;5.97;2.17;;;;;;;;;;5064837;28;20032;-89
2022/11/23 08:39:23;;;;;;;7.03;2.30;;;;;;;;;;5052679;28;20036;-89
2022/11/23 08:41:48;;;;;;;6.63;2.13;;;;;;;;;;5052645;28;20479;-88
2022/11/23 08:44:13;;;;;;;6.93;2.15;;;;;;;;;;5052808;28;20064;-87
2022/11/23 08:46:39;;;;;;;3.15;1.85;;;;;;;;;;5048320;28;20059;-87
2022/11/23 08:49:06;;;;;;;6.97;2.13;;;;;;;;;;5072695;28;20068;-87
2022/11/23 08:51:31;;;;;;;5.45;2.45;;;;;;;;;;5072446;28;20021;-88
2022/11/23 08:53:56;;;;;;;4.88;2.17;;;;;;;;;;5064509;28;20024;-88
2022/11/23 08:56:22;;;;;;;4.78;1.67;;;;;;;;;;5060769;28;20024;-87
2022/11/23 08:58:47;;;;;;;4.07;2.20;;;;;;;;;;5073495;28;20032;-87
2022/11/23 09:01:14;;;;;;;5.30;2.08;;;;;;;;;;5072369;28;20056;-88
2022/11/23 09:03:41;;;;;;;4.97;1.90;;;;;;;;;;5054930;28;20162;-87
2022/11/23 09:06:07;;;;;;;4.78;2.08;;;;;;;;;;5060180;28;20024;-88
2022/11/23 09:08:33;;;;;;;5.40;2.03;;;;;;;;;;5072958;28;20383;-88
2022/11/23 09:11:07;;;;;;;4.15;1.88;;;;;;;;;;5058437;28;20536;-87
2022/11/23 09:13:37;;;;;;;3.75;1.83;;;;;;;;;;5059230;28;20154;-87
2022/11/23 09:16:04;;;;;;;3.95;1.95;;;;;;;;;;5059345;28;20055;-87
2022/11/23 09:18:30;;;;;;;11.25;2.08;;;;;;;;;;5076964;28;20083;-88
2022/11/23 09:20:56;;;;;;;2.45;1.38;;;;;;;;;;5075221;28;20028;-87
2022/11/23 09:23:22;;;;;;;4.65;2.00;;;;;;;;;;5058906;28;20024;-87
2022/11/23 09:25:48;;;;;;;3.28;1.60;;;;;;;;;;5078051;28;20024;-88
2022/11/23 09:28:18;;;;;;;4.72;1.60;;;;;;;;;;5077085;28;20024;-88
2022/11/23 09:30:45;;;;;;;11.82;2.40;;;;;;;;;;5078276;28;20038;-87
2022/11/23 09:33:10;;;;;;;9.05;2.10;;;;;;;;;;5105020;28;20008;-88
2022/11/23 09:35:36;;;;;;;7.10;2.22;;;;;;;;;;5099591;28;20059;-87
2022/11/23 09:38:01;;;;;;;5.78;1.90;;;;;;;;;;5099581;28;20030;-87
2022/11/23 09:40:31;;;;;;;5.45;2.03;;;;;;;;;;5099699;28;20043;-87
2022/11/23 09:43:27;;;;;;;4.50;1.70;;;;;;;;;;5096763;28;20505;-87
2022/11/23 09:45:54;;;;;;;7.95;1.67;;;;;;;;;;5059809;28;20123;-87
2022/11/23 09:49:00;;;;;;;5.18;1.45;;;;;;;;;;5076927;28;20020;-87
2022/11/23 09:51:25;;;;;;;4.65;1.55;;;;;;;;;;5058721;28;20242;-87
2022/11/23 09:54:08;;;;;;;7.57;1.73;;;;;;;;;;5092588;28;20029;-88
2022/11/23 09:56:35;;;;;;;7.13;1.75;;;;;;;;;;5076500;28;20020;-88
2022/11/23 09:59:09;;;;;;;2.13;1.30;;;;;;;;;;5074907;28;20119;-87
2022/11/23 10:01:35;;;;;;;5.20;1.85;;;;;;;;;;5076008;28;20035;-88
2022/11/23 10:04:03;;;;;;;11.57;2.00;;;;;;;;;;5077754;28;20374;-87
2022/11/23 10:06:30;;;;;;;8.57;2.13;;;;;;;;;;5078438;28;20028;-87
2022/11/23 10:09:17;;;;;;;9.05;2.17;;;;;;;;;;5076949;28;20028;-88
2022/11/23 10:12:07;;;;;;;6.80;2.08;;;;;;;;;;5059834;28;20039;-88
2022/11/23 10:15:00;;;;;;;4.47;2.03;;;;;;;;;;5096876;28;20109;-87
2022/11/23 10:17:53;;;;;;;2.22;1.35;;;;;;;;;;5077949;28;20031;-87
2022/11/23 10:20:34;;;;;;;7.10;1.33;;;;;;;;;;5056375;28;20046;-87
2022/11/23 10:23:02;;;;;;;2.45;1.77;;;;;;;;;;5061178;28;20128;-87
2022/11/23 10:25:39;;;;;;;6.30;1.50;;;;;;;;;;5076801;28;20021;-88
2022/11/23 10:28:12;;;;;;;3.78;1.38;;;;;;;;;;5061459;28;20035;-87
2022/11/23 10:30:38;;;;;;;1.52;0.85;;;;;;;;;;5061830;28;20111;-87
2022/11/23 10:33:22;;;;;;;2.00;0.90;;;;;;;;;;5072161;28;20048;-88
2022/11/23 10:35:50;;;;;;;6.50;1.45;;;;;;;;;;5089349;28;20050;-88
2022/11/23 10:38:21;;;;;;;3.08;1.23;;;;;;;;;;5093560;28;20048;-87
2022/11/23 10:41:07;;;;;;;2.00;0.90;;;;;;;;;;5095168;28;20020;-86
2022/11/23 10:43:55;;;;;;;5.38;1.30;;;;;;;;;;5103913;28;20004;-86
2022/11/23 10:46:24;;;;;;;4.78;1.05;;;;;;;;;;5108456;28;20016;-87
2022/11/23 10:48:51;;;;;;;3.60;1.33;;;;;;;;;;5090894;28;20024;-88
2022/11/23 10:51:31;;;;;;;4.57;1.65;;;;;;;;;;5092865;28;20025;-87
2022/11/23 10:54:03;;;;;;;5.50;1.30;;;;;;;;;;5086182;28;20071;-88
2022/11/23 10:56:29;;;;;;;2.50;1.25;;;;;;;;;;5066120;28;20050;-87
2022/11/23 10:58:58;;;;;;;2.20;1.35;;;;;;;;;;5079500;28;21327;-87
2022/11/23 11:01:28;;;;;;;2.67;1.17;;;;;;;;;;5065949;28;20036;-87
2022/11/23 11:03:55;;;;;;;1.67;1.10;;;;;;;;;;5076913;28;20062;-88
2022/11/23 11:06:25;;;;;;;3.70;1.13;;;;;;;;;;5076679;28;20013;-87
2022/11/23 11:08:58;;;;;;;2.83;1.02;;;;;;;;;;5080533;28;20024;-87
2022/11/23 11:11:38;;;;;;;2.83;0.90;;;;;;;;;;5068833;28;20582;-87
2022/11/23 11:14:16;;;;;;;3.53;1.58;;;;;;;;;;5079580;28;20021;-87
2022/11/23 11:16:54;;;;;;;6.53;1.67;;;;;;;;;;5057993;28;20122;-87
2022/11/23 11:19:35;;;;;;;5.22;1.75;;;;;;;;;;5059594;28;20115;-87
2022/11/23 11:22:25;;;;;;;6.03;1.67;;;;;;;;;;5084046;28;20054;-87
2022/11/23 11:24:50;;;;;;;9.90;1.55;;;;;;;;;;5078480;28;20081;-87
2022/11/23 11:27:23;;;;;;;4.40;1.83;;;;;;;;;;5053616;28;20025;-88
2022/11/23 11:29:59;;;;;;;1.80;1.02;;;;;;;;;;5078685;28;20032;-89
2022/11/23 11:32:36;;;;;;;7.88;1.40;;;;;;;;;;5080174;28;20809;-86
2022/11/23 11:35:26;;;;;;;1.10;1.00;;;;;;;;;;5082217;28;20474;-86
2022/11/23 11:37:56;;;;;;;3.55;1.30;;;;;;;;;;5063544;28;20077;-87
2022/11/23 11:40:32;;;;;;;5.00;1.63;;;;;;;;;;5063445;28;20046;-89
2022/11/23 11:43:01;;;;;;;2.90;1.88;;;;;;;;;;5060764;28;20095;-87
2022/11/23 11:45:38;;;;;;;4.88;2.05;;;;;;;;;;5062852;28;20020;-87
2022/11/23 11:48:13;;;;;;;1.25;1.15;;;;;;;;;;5076316;28;20034;-86
2022/11/23 11:50:58;;;;;;;4.20;1.23;;;;;;;;;;5071354;28;20032;-86
2022/11/23 11:53:29;;;;;;;4.82;1.80;;;;;;;;;;5083343;28;20040;-86
2022/11/23 11:55:58;;;;;;;3.70;2.00;;;;;;;;;;5076778;28;20064;-86
2022/11/23 11:58:28;;;;;;;4.90;1.80;;;;;;;;;;5061301;28;20040;-87
2022/11/23 12:01:32;;;;;;;5.05;1.98;;;;;;;;;;5080954;28;20034;-87
2022/11/23 12:04:17;;;;;;;4.50;1.65;;;;;;;;;;5078517;28;20410;-86
2022/11/23 12:07:05;;;;;;;2.17;1.23;;;;;;;;;;5073223;28;20024;-85
2022/11/23 12:09:36;;;;;;;2.90;1.38;;;;;;;;;;5074084;28;20560;-83
2022/11/23 12:12:04;;;;;;;5.15;1.50;;;;;;;;;;5077109;28;20043;-85
2022/11/23 12:14:30;;;;;;;5.68;1.40;;;;;;;;;;5063160;28;20063;-84
2022/11/23 12:17:09;;;;;;;2.40;1.08;;;;;;;;;;5066796;28;20051;-87
2022/11/23 12:19:38;;;;;;;5.85;1.23;;;;;;;;;;5083320;28;20032;-88
2022/11/23 12:22:26;;;;;;;3.20;1.10;;;;;;;;;;5072064;28;20055;-86
2022/11/23 12:25:14;;;;;;;2.55;1.10;;;;;;;;;;5063677;28;20436;-87
2022/11/23 12:28:01;;;;;;;2.00;1.15;;;;;;;;;;5073428;28;20085;-86
2022/11/23 12:30:58;;;;;;;1.52;1.00;;;;;;;;;;5093957;28;20077;-86
2022/11/23 12:34:01;;;;;;;2.55;1.15;;;;;;;;;;5058541;28;20104;-87
2022/11/23 12:36:48;;;;;;;9.80;1.15;;;;;;;;;;5066260;28;20028;-88
2022/11/23 12:39:44;;;;;;;3.78;1.10;;;;;;;;;;5086563;28;20382;-88
2022/11/23 12:42:14;;;;;;;3.90;1.05;;;;;;;;;;5084853;28;20040;-88
2022/11/23 12:45:08;;;;;;;1.85;1.17;;;;;;;;;;5078558;28;20029;-87
2022/11/23 12:47:55;;;;;;;1.80;1.15;;;;;;;;;;5073442;28;20039;-89
2022/11/23 12:50:37;;;;;;;3.28;1.02;;;;;;;;;;5084888;28;20029;-89
2022/11/23 12:53:05;;;;;;;2.40;1.27;;;;;;;;;;5085485;28;20085;-85
2022/11/23 12:55:54;;;;;;;5.25;1.10;;;;;;;;;;5095771;28;20098;-84
2022/11/23 12:58:19;;;;;;;0.63;0.63;;;;;;;;;;5063825;28;20173;-88
2022/11/23 13:00:52;;;;;;;3.10;1.10;;;;;;;;;;5075154;28;20485;-89
2022/11/23 13:04:07;;;;;;;1.00;1.00;;;;;;;;;;5073565;28;20058;-86
2022/11/23 13:07:12;;;;;;;0.82;0.77;;;;;;;;;;5047825;28;20040;-92
2022/11/23 13:10:02;;;;;;;1.08;0.90;;;;;;;;;;5073945;28;20047;-86
2022/11/23 13:12:44;;;;;;;3.55;0.80;;;;;;;;;;5067928;28;20090;-88
2022/11/23 13:15:37;;;;;;;3.15;0.88;;;;;;;;;;5052308;28;20039;-86
2022/11/23 13:18:31;;;;;;;0.93;0.65;;;;;;;;;;5061242;28;20037;-85
2022/11/23 13:21:16;;;;;;;2.42;0.60;;;;;;;;;;5054836;28;20030;-88
2022/11/23 13:23:42;;;;;;;2.42;0.70;;;;;;;;;;5059397;28;20782;-88
2022/11/23 13:26:14;;;;;;;4.30;1.10;;;;;;;;;;5057731;28;20024;-88
2022/11/23 13:28:41;;;;;;;1.50;0.95;;;;;;;;;;5062217;28;20038;-88
2022/11/23 13:31:18;;;;;;;2.55;1.02;;;;;;;;;;5054714;28;20084;-86
2022/11/23 13:33:46;;;;;;;2.83;0.90;;;;;;;;;;5041841;28;20036;-89
2022/11/23 13:36:39;;;;;;;2.85;1.13;;;;;;;;;;5056561;28;20032;-88
2022/11/23 13:39:38;;;;;;;0.82;0.63;;;;;;;;;;5061809;28;20444;-88
2022/11/23 13:42:04;;;;;;;2.53;0.73;;;;;;;;;;5064129;28;20024;-87
2022/11/23 13:44:31;;;;;;;1.30;0.70;;;;;;;;;;5050099;28;20031;-89
2022/11/23 13:47:17;;;;;;;9.95;0.80;;;;;;;;;;5053172;28;20032;-89
2022/11/23 13:49:51;;;;;;;4.13;1.00;;;;;;;;;;5066851;28;20508;-88
2022/11/23 13:52:19;;;;;;;1.23;1.13;;;;;;;;;;5060122;28;20055;-89
2022/11/23 13:55:26;;;;;;;2.83;0.98;;;;;;;;;;5054862;28;20061;-87
2022/11/23 13:58:22;;;;;;;1.83;0.80;;;;;;;;;;5042311;28;20032;-88
2022/11/23 14:00:50;;;;;;;4.97;1.67;;;;;;;;;;5056155;28;20024;-88
2022/11/23 14:03:48;;;;;;;3.72;1.63;;;;;;;;;;5049209;28;20025;-88
2022/11/23 14:06:42;;;;;;;6.43;1.55;;;;;;;;;;5047483;28;20394;-90
2022/11/23 14:09:07;;;;;;;2.70;1.33;;;;;;;;;;5035038;28;20077;-88
2022/11/23 14:11:40;;;;;;;2.60;0.60;;;;;;;;;;5050612;28;20036;-84
2022/11/23 14:14:17;;;;;;;1.33;1.02;;;;;;;;;;5042507;28;20036;-85
2022/11/23 14:17:16;;;;;;;4.72;1.15;;;;;;;;;;5049980;28;20048;-83
2022/11/23 14:19:45;;;;;;;1.42;0.90;;;;;;;;;;5042890;28;20024;-88
2022/11/23 14:22:10;;;;;;;1.27;0.93;;;;;;;;;;5062938;28;20032;-89
2022/11/23 14:24:41;;;;;;;1.40;0.90;;;;;;;;;;5057883;28;20040;-84
2022/11/23 14:27:39;;;;;;;5.53;1.50;;;;;;;;;;5053523;28;20025;-87
2022/11/23 14:30:24;;;;;;;0.60;0.60;;;;;;;;;;5038144;28;20039;-89
2022/11/23 14:33:28;;;;;;;3.20;1.00;;;;;;;;;;5028723;28;20421;-88
2022/11/23 14:36:16;;;;;;;3.55;1.02;;;;;;;;;;5051612;28;20399;-85
2022/11/23 14:39:09;;;;;;;1.95;0.80;;;;;;;;;;5057978;28;20048;-88
2022/11/23 14:41:35;;;;;;;1.65;1.13;;;;;;;;;;5059659;28;20110;-88
2022/11/23 14:44:04;;;;;;;1.95;1.02;;;;;;;;;;5070846;28;20019;-87
2022/11/23 14:46:29;;;;;;;1.17;0.90;;;;;;;;;;5052999;28;20055;-89
2022/11/23 14:49:06;;;;;;;2.17;1.17;;;;;;;;;;5056917;28;20027;-84
2022/11/23 14:51:34;;;;;;;5.15;0.90;;;;;;;;;;5057102;28;20028;-88
2022/11/23 14:54:05;;;;;;;0.82;0.82;;;;;;;;;;5059017;28;20037;-88
2022/11/23 14:56:37;;;;;;;2.83;1.00;;;;;;;;;;5055692;28;20038;-88
2022/11/23 14:59:18;;;;;;;2.13;1.00;;;;;;;;;;5060065;28;20028;-87
2022/11/23 15:02:09;;;;;;;1.13;0.93;;;;;;;;;;5053221;28;20513;-86
2022/11/23 15:04:44;;;;;;;3.08;1.15;;;;;;;;;;5053634;28;20119;-87
2022/11/23 15:07:23;;;;;;;1.73;1.13;;;;;;;;;;5041509;28;20031;-85